Time;durP1;ratioP1;P1;durP2;ratioP2;P2;SDS_P1;SDS_P2;PMS_P1;PMS_P2;Temp;Humidity;BMP_temperature;BMP_pressure;BME280_temperature;BME280_humidity;BME280_pressure;Samples;Min_cycle;Max_cycle;Signal;HPM_P1;HPM_P2
2023/03/06 00:02:29;;;;;;;9.00;2.20;;;;;;;-3.63;80.97;98527.23;105914;1253;59743;-74
2023/03/06 00:05:16;;;;;;;9.00;2.10;;;;;;;-3.61;80.65;98527.98;105966;1253;60216;-75
2023/03/06 00:08:03;;;;;;;6.60;1.70;;;;;;;-3.60;80.65;98524.14;105405;1253;1002973;-73
2023/03/06 00:10:50;;;;;;;6.70;1.60;;;;;;;-3.60;80.94;98523.62;106014;1255;67563;-74
2023/03/06 00:13:37;;;;;;;6.10;1.80;;;;;;;-3.58;80.68;98522.36;106044;1253;72562;-75
2023/03/06 00:16:24;;;;;;;7.70;1.70;;;;;;;-3.60;80.58;98517.39;105791;1257;59316;-73
2023/03/06 00:19:11;;;;;;;8.90;1.90;;;;;;;-3.60;80.76;98518.44;105027;1256;1002993;-74
2023/03/06 00:21:58;;;;;;;6.90;1.70;;;;;;;-3.62;80.83;98523.00;105288;1255;1003720;-75
2023/03/06 00:24:44;;;;;;;9.90;2.10;;;;;;;-3.63;80.97;98516.11;106253;1253;196582;-73
2023/03/06 00:27:32;;;;;;;6.80;1.80;;;;;;;-3.63;80.78;98519.79;105841;1254;71137;-74
2023/03/06 00:30:22;;;;;;;5.90;1.70;;;;;;;-3.65;80.76;98519.00;105226;1252;1002986;-75
2023/03/06 00:33:10;;;;;;;6.40;1.60;;;;;;;-3.65;81.28;98522.79;106156;1253;59350;-75
2023/03/06 00:35:56;;;;;;;6.80;1.70;;;;;;;-3.63;81.17;98520.45;105381;1253;1002936;-75
2023/03/06 00:38:43;;;;;;;4.40;1.20;;;;;;;-3.62;80.85;98517.81;105759;1256;67688;-75
2023/03/06 00:41:30;;;;;;;6.60;1.60;;;;;;;-3.62;80.76;98517.27;105869;1253;72507;-73
2023/03/06 00:44:17;;;;;;;7.80;1.60;;;;;;;-3.61;80.88;98521.75;106033;1253;59244;-73
2023/03/06 00:47:04;;;;;;;8.10;1.90;;;;;;;-3.61;80.70;98517.94;106027;1256;59255;-73
2023/03/06 00:49:51;;;;;;;7.20;1.80;;;;;;;-3.61;80.81;98518.81;106075;1252;70696;-73
2023/03/06 00:52:39;;;;;;;7.50;1.90;;;;;;;-3.61;80.64;98519.33;106023;1256;69399;-74
2023/03/06 00:55:28;;;;;;;6.40;1.50;;;;;;;-3.60;80.81;98511.84;105330;1253;1003571;-73
2023/03/06 00:58:16;;;;;;;6.00;1.40;;;;;;;-3.57;80.84;98515.73;105840;1255;59244;-74
2023/03/06 01:01:04;;;;;;;8.50;1.80;;;;;;;-3.55;80.91;98513.00;106131;1253;62146;-75
2023/03/06 01:03:50;;;;;;;9.30;2.00;;;;;;;-3.54;80.72;98516.61;105272;1255;1003592;-76
2023/03/06 01:06:39;;;;;;;7.40;2.00;;;;;;;-3.51;80.57;98515.23;106005;1255;66609;-74
2023/03/06 01:09:26;;;;;;;6.60;1.60;;;;;;;-3.48;80.77;98507.67;105987;1254;71093;-75
2023/03/06 01:12:13;;;;;;;7.90;1.70;;;;;;;-3.47;80.57;98506.21;105905;1254;59452;-74
2023/03/06 01:15:00;;;;;;;5.70;1.40;;;;;;;-3.46;80.30;98504.10;106169;1256;59283;-74
2023/03/06 01:17:52;;;;;;;7.50;2.20;;;;;;;-3.46;80.22;98502.52;105928;1256;71944;-74
2023/03/06 01:20:38;;;;;;;7.90;2.10;;;;;;;-3.46;80.42;98496.64;105905;1254;67150;-72
2023/03/06 01:23:25;;;;;;;8.20;1.30;;;;;;;-3.45;80.39;98494.19;106016;1253;71311;-73
2023/03/06 01:26:14;;;;;;;6.40;1.50;;;;;;;-3.44;80.27;98491.71;106032;1254;61149;-73
2023/03/06 01:29:01;;;;;;;7.00;1.60;;;;;;;-3.43;80.04;98487.98;105364;1257;1003576;-73
2023/03/06 01:31:48;;;;;;;8.60;1.80;;;;;;;-3.42;80.26;98487.27;105827;1253;73623;-74
2023/03/06 01:34:34;;;;;;;9.80;1.80;;;;;;;-3.42;79.97;98487.27;105857;1253;69297;-75
2023/03/06 01:37:22;;;;;;;7.00;1.90;;;;;;;-3.42;80.03;98485.17;105754;1252;74235;-75
2023/03/06 01:40:11;;;;;;;6.30;1.50;;;;;;;-3.42;80.17;98482.93;105878;1253;61056;-74
2023/03/06 01:43:25;;;;;;;7.70;1.50;;;;;;;-3.41;80.04;98478.58;106030;1255;59563;-72
2023/03/06 01:46:31;;;;;;;7.50;1.60;;;;;;;-3.38;79.76;98482.23;105925;1253;72236;-73
2023/03/06 01:49:21;;;;;;;9.10;2.00;;;;;;;-3.35;79.66;98476.58;105999;1253;68327;-73
2023/03/06 01:52:14;;;;;;;7.90;1.60;;;;;;;-3.34;79.57;98478.61;105829;1252;74348;-74
2023/03/06 01:55:11;;;;;;;7.20;1.70;;;;;;;-3.34;79.64;98470.80;105514;1252;1003042;-75
2023/03/06 01:58:03;;;;;;;7.10;1.80;;;;;;;-3.34;79.46;98469.76;106026;1256;60464;-74
2023/03/06 02:00:50;;;;;;;5.70;1.30;;;;;;;-3.34;79.29;98467.98;105701;1257;71983;-72
2023/03/06 02:03:39;;;;;;;5.20;1.40;;;;;;;-3.35;79.13;98470.11;105712;1254;69361;-74
2023/03/06 02:06:26;;;;;;;5.90;1.40;;;;;;;-3.36;79.39;98466.73;105723;1254;72996;-72
2023/03/06 02:09:15;;;;;;;5.80;1.20;;;;;;;-3.37;79.30;98469.88;105979;1259;60209;-74
2023/03/06 02:12:06;;;;;;;7.50;1.20;;;;;;;-3.37;79.22;98471.27;105839;1258;59660;-73
2023/03/06 02:14:53;;;;;;;7.80;1.60;;;;;;;-3.38;79.12;98471.30;105619;1257;72169;-75
2023/03/06 02:17:44;;;;;;;5.60;1.10;;;;;;;-3.39;79.48;98466.52;105969;1254;66375;-73
2023/03/06 02:20:44;;;;;;;5.00;1.00;;;;;;;-3.42;79.30;98465.05;106368;1253;72481;-73
2023/03/06 02:24:05;;;;;;;5.90;1.20;;;;;;;-3.45;79.77;98468.67;105684;1257;59468;-74
2023/03/06 02:26:54;;;;;;;5.90;1.40;;;;;;;-3.47;80.16;98462.53;105718;1254;60259;-75
2023/03/06 02:29:42;;;;;;;4.80;1.10;;;;;;;-3.48;80.07;98465.89;105686;1254;72504;-75
2023/03/06 02:32:29;;;;;;;7.20;1.50;;;;;;;-3.49;80.46;98462.96;105874;1256;68302;-75
2023/03/06 02:35:21;;;;;;;6.60;1.20;;;;;;;-3.47;80.52;98463.07;105843;1255;74246;-74
2023/03/06 02:38:13;;;;;;;6.20;1.20;;;;;;;-3.46;80.56;98460.39;106223;1252;59329;-73
2023/03/06 02:41:05;;;;;;;5.30;1.40;;;;;;;-3.45;80.18;98458.79;105458;1252;1003682;-76
2023/03/06 02:43:52;;;;;;;7.60;1.40;;;;;;;-3.46;80.62;98467.15;106087;1255;69856;-74
2023/03/06 02:46:39;;;;;;;5.50;1.10;;;;;;;-3.47;80.37;98460.98;106083;1252;67680;-75
2023/03/06 02:49:26;;;;;;;8.20;1.30;;;;;;;-3.47;80.61;98463.77;106179;1252;72663;-73
2023/03/06 02:52:13;;;;;;;8.70;2.10;;;;;;;-3.47;80.50;98463.24;106091;1254;59937;-75
2023/03/06 02:55:00;;;;;;;7.20;1.50;;;;;;;-3.47;80.16;98462.36;106053;1255;60666;-73
2023/03/06 02:57:47;;;;;;;7.30;1.50;;;;;;;-3.46;80.32;98460.75;105103;1252;1002690;-73
2023/03/06 03:00:34;;;;;;;5.60;1.20;;;;;;;-3.46;80.65;98464.39;105811;1256;69152;-73
2023/03/06 03:03:22;;;;;;;7.20;1.40;;;;;;;-3.45;80.48;98460.70;105795;1253;71261;-76
2023/03/06 03:06:09;;;;;;;5.70;1.30;;;;;;;-3.46;80.36;98457.95;105959;1253;59231;-74
2023/03/06 03:08:56;;;;;;;6.50;1.20;;;;;;;-3.47;80.44;98461.33;105834;1256;61635;-73
2023/03/06 03:11:43;;;;;;;5.70;1.10;;;;;;;-3.48;80.09;98456.33;106035;1253;72285;-73
2023/03/06 03:14:30;;;;;;;7.30;1.30;;;;;;;-3.50;80.40;98457.63;106002;1253;68034;-76
2023/03/06 03:17:17;;;;;;;9.10;1.30;;;;;;;-3.50;80.36;98454.36;106292;1251;72978;-75
2023/03/06 03:20:10;;;;;;;7.30;1.50;;;;;;;-3.51;80.15;98455.59;105214;1251;1002804;-73
2023/03/06 03:22:57;;;;;;;8.70;1.80;;;;;;;-3.51;80.24;98453.70;106232;1253;59762;-74
2023/03/06 03:25:44;;;;;;;6.60;1.30;;;;;;;-3.50;80.14;98452.80;105992;1253;73762;-74
2023/03/06 03:28:32;;;;;;;6.40;1.20;;;;;;;-3.55;80.14;98446.41;106174;1252;66681;-75
2023/03/06 03:31:19;;;;;;;5.60;1.60;;;;;;;-3.52;80.46;98447.98;105787;1254;72806;-75
2023/03/06 03:34:07;;;;;;;6.60;1.40;;;;;;;-3.53;80.19;98442.50;105888;1253;59376;-74
2023/03/06 03:36:56;;;;;;;6.20;1.50;;;;;;;-3.54;80.40;98443.79;105541;1254;1003286;-73
2023/03/06 03:39:43;;;;;;;7.10;1.60;;;;;;;-3.57;80.36;98442.53;105847;1255;72257;-74
2023/03/06 03:42:31;;;;;;;6.80;1.50;;;;;;;-3.60;80.52;98440.40;106130;1252;65607;-72
2023/03/06 03:45:18;;;;;;;7.20;1.40;;;;;;;-3.62;80.69;98439.98;106153;1255;71473;-74
2023/03/06 03:48:05;;;;;;;6.60;1.40;;;;;;;-3.64;80.67;98433.99;105929;1255;59230;-73
2023/03/06 03:50:52;;;;;;;8.20;1.60;;;;;;;-3.64;80.66;98434.17;105213;1257;1003663;-73
2023/03/06 03:53:39;;;;;;;7.40;1.50;;;;;;;-3.64;80.81;98435.38;106123;1253;72763;-74
2023/03/06 03:56:27;;;;;;;6.90;1.40;;;;;;;-3.64;80.62;98431.41;105914;1253;69772;-73
2023/03/06 03:59:18;;;;;;;5.40;1.10;;;;;;;-3.65;80.61;98428.15;106101;1253;74177;-73
2023/03/06 04:02:14;;;;;;;10.90;1.50;;;;;;;-3.65;80.78;98431.28;105858;1253;59317;-73
2023/03/06 04:05:09;;;;;;;7.20;1.40;;;;;;;-3.66;80.55;98433.77;105985;1256;59421;-72
2023/03/06 04:07:56;;;;;;;8.90;1.90;;;;;;;-3.69;80.66;98431.08;106057;1253;72259;-73
2023/03/06 04:10:43;;;;;;;5.60;1.30;;;;;;;-3.71;80.87;98431.54;105332;1255;1003701;-73
2023/03/06 04:13:30;;;;;;;8.80;1.40;;;;;;;-3.70;80.86;98429.95;106146;1253;72939;-74
2023/03/06 04:16:17;;;;;;;10.50;1.90;;;;;;;-3.70;80.68;98427.85;106052;1254;59307;-73
2023/03/06 04:19:05;;;;;;;7.20;1.60;;;;;;;-3.70;80.56;98429.08;106276;1253;59231;-74
2023/03/06 04:21:52;;;;;;;7.40;1.50;;;;;;;-3.70;80.75;98429.08;106176;1256;74210;-74
2023/03/06 04:24:40;;;;;;;9.00;1.80;;;;;;;-3.71;80.50;98429.29;106120;1255;67595;-75
2023/03/06 04:27:27;;;;;;;6.40;1.70;;;;;;;-3.72;80.38;98428.29;105368;1253;1003692;-73
2023/03/06 04:30:14;;;;;;;7.80;1.60;;;;;;;-3.73;80.43;98427.83;105354;1252;1003181;-73
2023/03/06 04:33:02;;;;;;;7.00;1.70;;;;;;;-3.76;80.50;98426.02;106151;1253;59320;-73
2023/03/06 04:35:49;;;;;;;8.60;2.10;;;;;;;-3.79;80.66;98427.73;106180;1252;72022;-74
2023/03/06 04:38:40;;;;;;;8.40;1.40;;;;;;;-3.81;80.80;98426.79;106281;1252;67878;-74
2023/03/06 04:41:27;;;;;;;6.00;1.50;;;;;;;-3.83;80.39;98426.20;106165;1252;71240;-73
2023/03/06 04:44:14;;;;;;;6.80;1.80;;;;;;;-3.87;80.87;98424.14;105985;1253;59502;-76
2023/03/06 04:47:01;;;;;;;9.00;1.80;;;;;;;-3.88;81.00;98425.40;105853;1257;60159;-75
2023/03/06 04:49:47;;;;;;;6.90;1.90;;;;;;;-3.91;81.05;98423.25;105269;1253;1003452;-74
2023/03/06 04:52:34;;;;;;;10.40;2.30;;;;;;;-3.91;81.01;98425.85;106220;1255;68364;-75
2023/03/06 04:55:21;;;;;;;9.30;2.10;;;;;;;-3.92;81.17;98426.94;105606;1252;1003090;-73
2023/03/06 04:58:11;;;;;;;6.70;2.00;;;;;;;-3.91;81.09;98426.58;104464;1252;1003410;-74
2023/03/06 05:00:57;;;;;;;9.70;2.10;;;;;;;-3.91;80.88;98426.55;105505;1252;1002518;-74
2023/03/06 05:03:44;;;;;;;7.30;2.00;;;;;;;-3.91;81.00;98425.52;105184;1252;1002975;-74
2023/03/06 05:06:31;;;;;;;7.30;1.80;;;;;;;-3.92;81.14;98425.40;106178;1252;69784;-76
2023/03/06 05:09:18;;;;;;;7.10;1.70;;;;;;;-3.94;80.83;98423.37;106119;1253;71189;-74
2023/03/06 05:12:05;;;;;;;6.90;2.00;;;;;;;-3.95;81.05;98425.35;106084;1252;59181;-74
2023/03/06 05:14:52;;;;;;;8.50;1.60;;;;;;;-3.98;81.37;98424.59;106379;1252;59334;-74
2023/03/06 05:17:39;;;;;;;7.30;1.50;;;;;;;-3.99;81.18;98425.52;105978;1253;70764;-75
2023/03/06 05:20:27;;;;;;;7.20;1.60;;;;;;;-4.01;81.26;98422.99;105901;1253;67615;-70
2023/03/06 05:23:14;;;;;;;8.40;2.40;;;;;;;-4.02;81.42;98426.17;106435;1252;72517;-74
2023/03/06 05:26:13;;;;;;;9.70;2.60;;;;;;;-4.02;81.32;98429.99;105965;1252;59411;-75
2023/03/06 05:28:59;;;;;;;8.90;2.50;;;;;;;-4.02;81.31;98431.02;106374;1257;59199;-74
2023/03/06 05:31:46;;;;;;;9.20;2.30;;;;;;;-3.99;81.21;98431.77;106214;1252;70867;-76
2023/03/06 05:34:33;;;;;;;8.20;2.00;;;;;;;-3.96;81.23;98430.41;106094;1252;66468;-74
2023/03/06 05:37:21;;;;;;;9.50;2.20;;;;;;;-3.92;80.91;98434.75;105954;1252;71154;-76
2023/03/06 05:40:10;;;;;;;8.90;1.90;;;;;;;-3.90;80.83;98432.55;106080;1252;59251;-74
2023/03/06 05:42:57;;;;;;;11.70;1.90;;;;;;;-3.87;80.78;98436.96;106221;1253;59430;-76
2023/03/06 05:45:44;;;;;;;7.60;1.50;;;;;;;-3.86;81.04;98439.50;106097;1251;71914;-77
2023/03/06 05:48:32;;;;;;;7.90;1.80;;;;;;;-3.86;80.96;98439.99;105947;1256;68033;-77
2023/03/06 05:51:19;;;;;;;6.60;1.80;;;;;;;-3.85;80.77;98439.13;105918;1255;74145;-77
2023/03/06 05:54:05;;;;;;;7.90;1.80;;;;;;;-3.86;80.57;98439.67;105825;1255;59511;-76
2023/03/06 05:56:56;;;;;;;8.40;1.60;;;;;;;-3.86;80.71;98439.69;106479;1253;59765;-75
2023/03/06 05:59:42;;;;;;;8.20;1.60;;;;;;;-3.86;80.60;98444.52;106106;1253;70971;-75
2023/03/06 06:02:29;;;;;;;8.80;2.10;;;;;;;-3.86;80.79;98445.57;105970;1253;67754;-75
2023/03/06 06:05:16;;;;;;;11.40;1.90;;;;;;;-3.85;80.42;98445.33;106052;1253;70403;-74
2023/03/06 06:08:03;;;;;;;10.70;2.20;;;;;;;-3.82;80.69;98444.50;105475;1257;1002141;-76
2023/03/06 06:10:50;;;;;;;9.10;2.30;;;;;;;-3.78;80.42;98449.70;106108;1253;60881;-75
2023/03/06 06:13:41;;;;;;;9.20;2.00;;;;;;;-3.72;80.39;98449.29;105723;1253;74023;-76
2023/03/06 06:16:27;;;;;;;9.40;2.20;;;;;;;-3.67;80.11;98450.44;106099;1253;69285;-74
2023/03/06 06:19:17;;;;;;;9.10;2.30;;;;;;;-3.61;79.86;98445.98;106061;1256;74204;-74
2023/03/06 06:22:04;;;;;;;10.90;2.90;;;;;;;-3.55;79.83;98447.46;105450;1252;1002907;-74
2023/03/06 06:24:51;;;;;;;9.30;2.00;;;;;;;-3.50;79.52;98447.23;106406;1253;60303;-75
2023/03/06 06:27:38;;;;;;;11.10;2.50;;;;;;;-3.47;79.13;98451.08;106006;1255;70683;-74
2023/03/06 06:30:25;;;;;;;8.00;1.70;;;;;;;-3.43;78.81;98452.27;106014;1255;67692;-74
2023/03/06 06:33:11;;;;;;;9.00;1.90;;;;;;;-3.40;78.70;98454.91;106428;1252;73935;-75
2023/03/06 06:35:58;;;;;;;10.20;2.50;;;;;;;-3.36;78.57;98454.05;105299;1255;1003716;-75
2023/03/06 06:38:45;;;;;;;7.50;2.10;;;;;;;-3.32;78.23;98454.91;105106;1257;1003537;-74
2023/03/06 06:41:32;;;;;;;10.50;2.20;;;;;;;-3.27;78.01;98455.69;105891;1253;73753;-74
2023/03/06 06:44:39;;;;;;;11.30;2.20;;;;;;;-3.19;77.92;98454.31;106044;1255;65722;-71
2023/03/06 06:47:26;;;;;;;8.40;1.80;;;;;;;-3.12;77.67;98455.02;105957;1256;73904;-70
2023/03/06 06:50:13;;;;;;;10.10;2.00;;;;;;;-3.04;77.29;98458.48;105284;1255;1002998;-68
2023/03/06 06:53:00;;;;;;;9.10;2.60;;;;;;;-2.98;76.71;98454.86;105547;1252;1003311;-75
2023/03/06 06:55:47;;;;;;;9.30;2.20;;;;;;;-2.91;76.83;98458.02;104987;1253;1003109;-75
2023/03/06 06:58:34;;;;;;;8.80;1.80;;;;;;;-2.84;76.48;98457.50;106009;1253;66254;-76
2023/03/06 07:01:21;;;;;;;8.90;2.20;;;;;;;-2.75;75.91;98459.14;105437;1253;1002978;-74
2023/03/06 07:04:14;;;;;;;12.80;3.10;;;;;;;-2.63;75.87;98456.12;105780;1252;59571;-76
2023/03/06 07:07:02;;;;;;;8.70;2.40;;;;;;;-2.43;75.03;98456.17;105382;1253;1003034;-74
2023/03/06 07:09:49;;;;;;;10.70;3.00;;;;;;;-1.95;74.85;98458.79;105967;1253;72141;-74
2023/03/06 07:12:36;;;;;;;11.90;3.10;;;;;;;-0.31;72.75;98452.54;106074;1254;66514;-75
2023/03/06 07:15:25;;;;;;;11.60;3.10;;;;;;;1.81;65.21;98448.65;105762;1253;74293;-75
2023/03/06 07:18:12;;;;;;;10.30;3.10;;;;;;;3.62;57.61;98443.61;105866;1253;59384;-75
2023/03/06 07:20:59;;;;;;;10.60;3.20;;;;;;;5.28;53.43;98438.07;105801;1255;60582;-74
2023/03/06 07:23:47;;;;;;;11.50;3.40;;;;;;;6.78;48.94;98436.08;105841;1256;71346;-75
2023/03/06 07:26:34;;;;;;;11.50;3.60;;;;;;;8.14;45.68;98432.27;106038;1255;67656;-74
2023/03/06 07:29:21;;;;;;;12.40;4.40;;;;;;;9.29;42.06;98428.77;106232;1255;72464;-73
2023/03/06 07:32:08;;;;;;;9.10;3.60;;;;;;;10.16;39.21;98426.45;105944;1257;59636;-75
2023/03/06 07:34:54;;;;;;;10.40;3.30;;;;;;;11.01;37.47;98423.30;105920;1255;59301;-75
2023/03/06 07:38:01;;;;;;;9.20;2.90;;;;;;;11.74;35.11;98422.91;105938;1255;72102;-74
2023/03/06 07:40:52;;;;;;;8.60;3.20;;;;;;;12.10;33.08;98425.00;106278;1253;66998;-78
2023/03/06 07:43:40;;;;;;;9.70;3.40;;;;;;;12.59;32.20;98424.75;105997;1252;71134;-76
2023/03/06 07:46:27;;;;;;;9.20;2.90;;;;;;;13.11;31.73;98428.15;105960;1252;59204;-74
2023/03/06 07:49:15;;;;;;;7.90;2.90;;;;;;;13.44;30.84;98425.82;106274;1253;60575;-75
2023/03/06 07:52:02;;;;;;;9.30;3.20;;;;;;;13.74;29.41;98429.33;106084;1254;71060;-76
2023/03/06 07:54:49;;;;;;;8.10;2.90;;;;;;;14.15;28.90;98426.79;105828;1253;66819;-76
2023/03/06 07:57:37;;;;;;;11.40;3.40;;;;;;;14.73;29.23;98426.14;105857;1255;71326;-75
2023/03/06 08:00:24;;;;;;;8.80;3.10;;;;;;;15.42;28.17;98422.99;106077;1253;59319;-76
2023/03/06 08:03:12;;;;;;;12.00;2.70;;;;;;;15.81;26.95;98419.70;106321;1253;61964;-71
2023/03/06 08:06:15;;;;;;;8.70;2.80;;;;;;;15.91;26.06;98415.02;105888;1253;70643;-77
2023/03/06 08:09:02;;;;;;;15.00;7.20;;;;;;;15.81;25.82;98415.82;106151;1253;67676;-75
2023/03/06 08:11:50;;;;;;;11.10;3.60;;;;;;;16.12;26.07;98414.84;106163;1253;74621;-75
2023/03/06 08:14:37;;;;;;;8.20;2.70;;;;;;;16.58;25.37;98413.52;105833;1252;59267;-74
2023/03/06 08:17:24;;;;;;;8.10;2.60;;;;;;;16.91;24.87;98417.74;106066;1252;60352;-71
2023/03/06 08:20:13;;;;;;;8.30;2.70;;;;;;;17.19;24.38;98412.68;106224;1253;71692;-70
2023/03/06 08:23:00;;;;;;;8.40;2.50;;;;;;;17.80;23.97;98414.28;105710;1253;66478;-69
2023/03/06 08:25:56;;;;;;;8.40;2.80;;;;;;;18.00;23.36;98409.64;105980;1253;74036;-68
2023/03/06 08:28:44;;;;;;;8.20;2.80;;;;;;;17.95;23.13;98409.01;106111;1255;59419;-72
2023/03/06 08:31:34;;;;;;;7.40;2.30;;;;;;;18.13;22.91;98407.93;105804;1253;61129;-69
2023/03/06 08:34:23;;;;;;;7.20;2.30;;;;;;;18.03;22.73;98408.39;105815;1255;72192;-70
2023/03/06 08:37:10;;;;;;;7.90;2.40;;;;;;;18.07;22.87;98406.73;106041;1255;68279;-69
2023/03/06 08:39:57;;;;;;;8.30;2.50;;;;;;;17.91;22.58;98409.04;106039;1254;72101;-69
2023/03/06 08:42:47;;;;;;;7.70;2.30;;;;;;;17.76;22.71;98408.11;105833;1256;59506;-70
2023/03/06 08:45:34;;;;;;;8.30;2.40;;;;;;;18.10;22.55;98410.98;105733;1252;59984;-70
2023/03/06 08:48:21;;;;;;;7.20;2.20;;;;;;;18.17;22.07;98412.58;105752;1253;70648;-71
2023/03/06 08:51:09;;;;;;;9.00;2.00;;;;;;;18.38;21.82;98414.02;106003;1254;67819;-72
2023/03/06 08:53:57;;;;;;;7.00;2.10;;;;;;;18.44;21.96;98419.27;105922;1253;74274;-69
2023/03/06 08:56:44;;;;;;;7.40;2.00;;;;;;;18.41;21.62;98416.38;106129;1253;59555;-70
2023/03/06 08:59:31;;;;;;;9.80;2.30;;;;;;;18.46;21.78;98420.92;105934;1253;60225;-68
2023/03/06 09:02:17;;;;;;;6.90;2.10;;;;;;;18.45;21.06;98418.82;105716;1254;72580;-71
2023/03/06 09:05:07;;;;;;;8.20;1.80;;;;;;;18.57;21.19;98423.92;105776;1256;67986;-69
2023/03/06 09:07:54;;;;;;;7.30;2.20;;;;;;;18.91;21.26;98421.60;106148;1253;72102;-72
2023/03/06 09:10:46;;;;;;;6.80;2.10;;;;;;;19.34;20.48;98419.66;105696;1253;59693;-71
2023/03/06 09:13:33;;;;;;;6.60;1.80;;;;;;;19.08;20.44;98420.55;106105;1253;60301;-70
2023/03/06 09:16:20;;;;;;;6.60;2.10;;;;;;;16.64;22.17;98417.90;106170;1251;70598;-70
2023/03/06 09:19:07;;;;;;;7.20;2.40;;;;;;;14.95;24.16;98426.20;106286;1255;69408;-70
2023/03/06 09:21:54;;;;;;;10.20;2.50;;;;;;;15.68;23.76;98419.70;105694;1252;73933;-68
2023/03/06 09:24:40;;;;;;;7.80;2.40;;;;;;;16.67;23.13;98418.27;106081;1253;59625;-69
2023/03/06 09:27:28;;;;;;;7.00;1.90;;;;;;;17.64;22.48;98417.32;106004;1253;61877;-71
2023/03/06 09:30:16;;;;;;;7.30;1.90;;;;;;;18.76;21.39;98418.41;105998;1253;73726;-70
2023/03/06 09:33:03;;;;;;;8.40;3.50;;;;;;;19.17;20.27;98421.36;106026;1253;67656;-69
2023/03/06 09:35:56;;;;;;;7.60;2.00;;;;;;;19.32;20.26;98415.44;106145;1255;71171;-69
2023/03/06 09:38:46;;;;;;;6.10;1.50;;;;;;;19.43;19.47;98418.28;105845;1255;59327;-73
2023/03/06 09:41:39;;;;;;;6.10;1.40;;;;;;;19.78;19.22;98413.95;105875;1253;59337;-71
2023/03/06 09:44:31;;;;;;;6.10;1.60;;;;;;;20.09;18.72;98415.09;106036;1255;72195;-75
2023/03/06 09:47:43;;;;;;;6.10;1.80;;;;;;;20.18;18.59;98408.20;105897;1253;66274;-72
2023/03/06 09:50:54;;;;;;;6.60;1.70;;;;;;;20.68;18.48;98413.39;105780;1253;73017;-71
2023/03/06 09:54:10;;;;;;;7.00;1.40;;;;;;;21.24;18.16;98413.51;105816;1253;59330;-73
2023/03/06 09:56:57;;;;;;;6.90;2.00;;;;;;;20.78;18.14;98411.04;105780;1253;61626;-72
2023/03/06 09:59:50;;;;;;;6.70;1.40;;;;;;;20.28;17.63;98420.77;106120;1255;73614;-73
2023/03/06 10:02:36;;;;;;;7.20;2.00;;;;;;;18.22;19.08;98423.59;106086;1255;68383;-74
2023/03/06 10:05:38;;;;;;;7.10;1.90;;;;;;;16.40;20.52;98422.14;105957;1252;72480;-74
2023/03/06 10:09:12;;;;;;;9.20;1.80;;;;;;;15.58;21.86;98421.45;106078;1255;59414;-74
2023/03/06 10:12:05;;;;;;;7.60;1.80;;;;;;;16.07;21.61;98418.94;105843;1253;61745;-74
2023/03/06 10:15:09;;;;;;;6.80;1.70;;;;;;;15.73;20.99;98418.52;105800;1252;72246;-73
2023/03/06 10:17:56;;;;;;;9.10;1.80;;;;;;;14.97;21.05;98428.20;106281;1255;67730;-72
2023/03/06 10:21:01;;;;;;;5.80;1.50;;;;;;;16.62;20.76;98421.26;105843;1255;74022;-73
2023/03/06 10:24:42;;;;;;;6.90;1.60;;;;;;;17.05;19.94;98424.79;105970;1253;59229;-78
2023/03/06 10:27:52;;;;;;;7.70;1.60;;;;;;;14.93;21.61;98428.44;106159;1253;59309;-74
2023/03/06 10:30:44;;;;;;;7.60;1.70;;;;;;;13.20;23.50;98426.85;105977;1252;73661;-74
2023/03/06 10:33:51;;;;;;;6.90;1.80;;;;;;;12.06;25.09;98425.33;105913;1253;67619;-73
2023/03/06 10:36:38;;;;;;;5.80;1.60;;;;;;;11.58;25.91;98424.66;106261;1253;74600;-75
2023/03/06 10:39:27;;;;;;;6.70;1.70;;;;;;;12.98;25.10;98418.21;106036;1253;59343;-75
2023/03/06 10:42:14;;;;;;;5.40;1.30;;;;;;;13.03;24.42;98417.64;105926;1256;61998;-74
2023/03/06 10:45:13;;;;;;;5.70;1.40;;;;;;;12.67;24.86;98412.89;105065;1255;1003072;-74
2023/03/06 10:48:10;;;;;;;5.40;1.40;;;;;;;14.79;23.58;98409.50;105773;1256;69328;-73
2023/03/06 10:51:22;;;;;;;5.50;1.50;;;;;;;15.36;22.25;98407.37;106046;1253;72962;-76
2023/03/06 10:54:12;;;;;;;6.20;1.60;;;;;;;15.01;22.33;98407.78;106050;1255;59201;-74
2023/03/06 10:57:16;;;;;;;6.90;1.60;;;;;;;14.30;22.56;98409.37;106140;1255;59362;-75
2023/03/06 11:00:23;;;;;;;6.50;1.80;;;;;;;12.52;24.10;98413.52;105861;1252;72200;-73
2023/03/06 11:03:29;;;;;;;6.30;1.70;;;;;;;11.27;25.94;98418.23;105961;1253;68915;-74
2023/03/06 11:06:42;;;;;;;6.80;2.10;;;;;;;10.38;27.74;98422.02;105034;1256;1003351;-76
2023/03/06 11:09:32;;;;;;;8.60;2.20;;;;;;;9.57;29.84;98421.57;105790;1260;59369;-74
2023/03/06 11:12:36;;;;;;;5.30;1.50;;;;;;;8.86;30.87;98425.53;105975;1260;60080;-75
2023/03/06 11:15:26;;;;;;;5.50;1.50;;;;;;;7.85;31.88;98424.42;105834;1259;72070;-75
2023/03/06 11:18:12;;;;;;;5.80;1.50;;;;;;;7.05;32.97;98429.64;105955;1256;68372;-73
2023/03/06 11:21:01;;;;;;;9.10;1.60;;;;;;;6.44;34.03;98431.98;105692;1260;71353;-73
2023/03/06 11:23:49;;;;;;;6.30;1.70;;;;;;;5.92;35.11;98433.38;105510;1259;59176;-74
2023/03/06 11:26:46;;;;;;;7.60;1.80;;;;;;;5.43;35.78;98431.27;105664;1254;60375;-75
2023/03/06 11:29:47;;;;;;;7.40;2.30;;;;;;;4.97;36.53;98430.27;105923;1260;72147;-76
2023/03/06 11:32:46;;;;;;;6.20;1.60;;;;;;;4.57;37.39;98428.45;105736;1257;69456;-75
2023/03/06 11:36:28;;;;;;;6.20;1.70;;;;;;;4.30;38.24;98422.83;105687;1257;72550;-74
2023/03/06 11:39:40;;;;;;;6.00;1.70;;;;;;;4.02;38.87;98425.52;105426;1261;59244;-74
2023/03/06 11:42:36;;;;;;;5.90;1.50;;;;;;;3.96;39.30;98427.59;105785;1257;60291;-75
2023/03/06 11:45:25;;;;;;;7.00;1.60;;;;;;;4.84;39.00;98421.58;104845;1258;1003508;-74
2023/03/06 11:48:12;;;;;;;6.30;1.70;;;;;;;6.67;36.14;98416.53;105706;1259;67762;-74
2023/03/06 11:51:38;;;;;;;6.10;1.80;;;;;;;8.15;33.24;98404.64;106020;1258;71263;-72
2023/03/06 11:54:25;;;;;;;9.20;2.90;;;;;;;9.30;31.27;98398.23;107187;1264;59176;-74
2023/03/06 11:57:22;;;;;;;6.60;1.90;;;;;;;9.57;30.59;98392.36;106639;1261;59346;-74
2023/03/06 12:00:32;;;;;;;8.40;1.90;;;;;;;10.10;29.72;98395.23;106651;1260;72153;-74
2023/03/06 12:03:36;;;;;;;6.00;1.70;;;;;;;10.54;28.80;98399.13;106114;1262;66422;-75
2023/03/06 12:07:10;;;;;;;6.20;1.40;;;;;;;10.36;28.16;98394.88;105497;1262;72790;-72
2023/03/06 12:10:09;;;;;;;5.40;1.50;;;;;;;9.80;28.74;98395.06;105538;1261;59456;-73
2023/03/06 12:13:28;;;;;;;6.30;1.60;;;;;;;9.50;29.40;98392.23;105895;1260;59331;-74
2023/03/06 12:16:53;;;;;;;6.50;2.00;;;;;;;9.65;28.77;98394.64;105446;1260;73595;-72
2023/03/06 12:20:12;;;;;;;8.10;2.90;;;;;;;9.16;28.81;98398.23;105581;1263;69191;-76
2023/03/06 12:23:50;;;;;;;7.80;2.30;;;;;;;9.13;28.37;98399.80;105731;1262;210088;-76
2023/03/06 12:26:49;;;;;;;6.30;1.80;;;;;;;9.35;27.91;98403.55;105464;1260;59623;-74
2023/03/06 12:30:04;;;;;;;5.90;1.60;;;;;;;9.25;29.00;98404.93;105618;1262;59369;-74
2023/03/06 12:33:10;;;;;;;6.90;1.80;;;;;;;8.60;30.56;98408.06;105313;1264;72272;-76
2023/03/06 12:36:02;;;;;;;6.30;1.90;;;;;;;7.98;31.88;98416.95;105304;1266;66445;-75
2023/03/06 12:39:51;;;;;;;7.50;2.20;;;;;;;7.30;35.56;98421.45;105494;1263;72298;-74
2023/03/06 12:42:38;;;;;;;8.20;2.20;;;;;;;6.47;38.27;98434.38;105490;1262;59390;-73
2023/03/06 12:45:32;;;;;;;7.70;1.80;;;;;;;5.94;40.08;98440.27;105392;1260;60206;-74
2023/03/06 12:48:28;;;;;;;6.20;1.90;;;;;;;5.30;42.10;98440.41;105595;1259;73477;-76
2023/03/06 12:51:19;;;;;;;7.10;1.80;;;;;;;4.84;43.67;98438.98;105448;1264;66897;-75
2023/03/06 12:54:09;;;;;;;6.40;1.70;;;;;;;4.54;45.01;98440.63;105879;1253;71227;-76
2023/03/06 12:56:59;;;;;;;7.20;2.40;;;;;;;4.23;46.54;98441.86;106448;1254;59849;-75
2023/03/06 12:59:48;;;;;;;7.50;1.80;;;;;;;3.86;48.11;98441.84;105809;1253;59350;-74
2023/03/06 13:03:05;;;;;;;6.30;1.80;;;;;;;3.59;49.89;98442.94;105797;1256;74064;-74
2023/03/06 13:06:34;;;;;;;6.10;1.80;;;;;;;3.44;50.34;98445.38;105839;1255;68674;-73
2023/03/06 13:10:11;;;;;;;6.30;1.70;;;;;;;3.55;50.32;98438.38;105754;1253;72719;-72
2023/03/06 13:13:07;;;;;;;6.10;1.80;;;;;;;3.76;50.12;98439.39;106398;1254;59342;-74
2023/03/06 13:16:29;;;;;;;6.00;1.70;;;;;;;3.85;49.26;98438.24;105812;1253;59337;-74
2023/03/06 13:19:25;;;;;;;10.70;4.00;;;;;;;3.98;49.39;98434.98;106144;1256;70787;-75
2023/03/06 13:22:25;;;;;;;7.90;2.30;;;;;;;4.09;49.11;98436.59;106123;1255;69437;-76